Time;durP1;ratioP1;P1;durP2;ratioP2;P2;SDS_P1;SDS_P2;PMS_P1;PMS_P2;Temp;Humidity;BMP_temperature;BMP_pressure;BME280_temperature;BME280_humidity;BME280_pressure;Samples;Min_cycle;Max_cycle;Signal;HPM_P1;HPM_P2
2023/01/27 00:00:34;;;;;;;;;;;;;;;29.27;59.45;101002.97;5078611;28;70595;-33
2023/01/27 00:03:05;;;;;;;;;;;;;;;29.27;59.71;101011.09;5079241;27;66940;-34
2023/01/27 00:05:36;;;;;;;;;;;;;;;29.27;59.16;101026.47;5088071;27;69331;-32
2023/01/27 00:08:06;;;;;;;;;;;;;;;29.26;59.49;101025.66;5083059;27;66938;-33
2023/01/27 00:10:37;;;;;;;;;;;;;;;29.26;59.24;101014.84;5084813;27;69825;-35
2023/01/27 00:13:26;;;;;;;;;;;;;;;29.27;59.41;101016.50;5086986;27;66189;-35
2023/01/27 00:15:56;;;;;;;;;;;;;;;29.26;59.17;101024.81;5079670;27;70584;-33
2023/01/27 00:18:27;;;;;;;;;;;;;;;29.25;59.85;101026.66;5085992;27;65245;-34
2023/01/27 00:26:36;;;;;;;;;;;;;;;29.24;59.94;101041.22;5084224;27;69743;-34
2023/01/27 00:29:06;;;;;;;;;;;;;;;29.25;59.90;101061.78;5070591;27;66259;-33
2023/01/27 00:34:25;;;;;;;;;;;;;;;29.25;59.94;101053.69;5068406;27;66236;-34
2023/01/27 00:36:56;;;;;;;;;;;;;;;29.25;59.39;101055.56;5084061;27;69435;-33
2023/01/27 00:39:26;;;;;;;;;;;;;;;29.25;59.32;101059.09;5081129;27;66211;-33
2023/01/27 00:41:57;;;;;;;;;;;;;;;29.25;59.87;101056.38;5040702;27;69963;-32
2023/01/27 00:44:27;;;;;;;;;;;;;;;29.24;60.03;101068.25;5082552;27;66654;-33
2023/01/27 00:46:58;;;;;;;;;;;;;;;29.25;59.42;101066.38;5067468;27;69330;-34
2023/01/27 00:49:28;;;;;;;;;;;;;;;29.25;59.96;101072.59;5074114;27;65754;-34
2023/01/27 00:51:59;;;;;;;;;;;;;;;29.25;59.60;101067.19;5053244;27;69146;-34
2023/01/27 00:54:29;;;;;;;;;;;;;;;29.26;59.43;101076.16;5084119;27;66017;-34
2023/01/27 00:57:00;;;;;;;;;;;;;;;29.25;59.41;101078.00;5079330;27;69848;-33
2023/01/27 00:59:31;;;;;;;;;;;;;;;29.25;59.93;101075.28;5049218;27;65694;-34
2023/01/27 01:02:02;;;;;;;;;;;;;;;29.25;59.46;101069.88;5062541;28;69799;-33
2023/01/27 01:04:32;;;;;;;;;;;;;;;29.26;60.04;101074.28;5072832;27;66457;-32
2023/01/27 01:07:03;;;;;;;;;;;;;;;29.26;59.66;101068.88;5088401;27;71213;-31
2023/01/27 01:09:34;;;;;;;;;;;;;;;29.26;59.85;101079.69;5070542;27;66632;-34
2023/01/27 01:12:05;;;;;;;;;;;;;;;29.26;59.92;101076.97;5045461;27;70045;-33
2023/01/27 01:14:35;;;;;;;;;;;;;;;29.25;59.91;101080.69;5089855;27;66603;-33
2023/01/27 01:17:06;;;;;;;;;;;;;;;29.28;60.25;101084.88;5062044;27;70354;-33
2023/01/27 01:19:37;;;;;;;;;;;;;;;29.29;60.18;101089.25;5064644;28;66115;-33
2023/01/27 01:22:08;;;;;;;;;;;;;;;29.29;59.92;101100.88;5055813;27;69932;-34
2023/01/27 01:24:38;;;;;;;;;;;;;;;29.29;60.20;101090.06;5062505;28;66560;-33
2023/01/27 01:27:09;;;;;;;;;;;;;;;29.30;60.15;101089.03;5063322;27;70171;-32
2023/01/27 01:29:39;;;;;;;;;;;;;;;29.30;60.95;101097.13;5059354;28;66002;-32
2023/01/27 01:32:10;;;;;;;;;;;;;;;29.31;60.41;101103.38;5074991;27;69990;-32
2023/01/27 01:34:41;;;;;;;;;;;;;;;29.30;60.95;101099.00;5059555;28;65600;-35
2023/01/27 01:37:11;;;;;;;;;;;;;;;29.29;60.82;101106.28;5085845;27;70064;-35
2023/01/27 01:39:42;;;;;;;;;;;;;;;29.30;60.89;101101.72;5079909;28;66580;-34
2023/01/27 01:42:13;;;;;;;;;;;;;;;29.30;60.67;101107.13;5082533;27;70739;-33
2023/01/27 01:44:44;;;;;;;;;;;;;;;29.31;60.61;101117.72;5061519;27;66817;-35
2023/01/27 01:47:16;;;;;;;;;;;;;;;29.32;60.62;101105.88;5060106;28;71358;-35
2023/01/27 01:49:47;;;;;;;;;;;;;;;29.33;60.48;101106.69;5059751;28;66168;-33
2023/01/27 01:52:20;;;;;;;;;;;;;;;29.30;60.64;101102.53;5043646;28;69732;-35
2023/01/27 01:54:52;;;;;;;;;;;;;;;29.34;60.19;101109.22;5079439;27;66107;-35
2023/01/27 01:57:28;;;;;;;;;;;;;;;29.35;60.28;101113.56;5077463;27;70561;-35
2023/01/27 02:00:02;;;;;;;;;;;;;;;29.37;60.56;101114.22;5079751;27;66453;-34
2023/01/27 02:02:41;;;;;;;;;;;;;;;29.38;60.14;101112.34;5069986;27;70488;-35
2023/01/27 02:05:15;;;;;;;;;;;;;;;29.39;60.14;101112.16;5061705;27;66928;-34
2023/01/27 02:07:53;;;;;;;;;;;;;;;29.42;60.49;101110.03;5049633;28;70845;-35
2023/01/27 02:10:24;;;;;;;;;;;;;;;29.42;60.12;101110.91;5086032;27;66547;-34
2023/01/27 02:12:55;;;;;;;;;;;;;;;29.44;60.49;101102.56;5086904;27;69917;-33
2023/01/27 02:15:25;;;;;;;;;;;;;;;29.44;59.95;101097.16;5085986;27;65926;-36
2023/01/27 02:17:57;;;;;;;;;;;;;;;29.47;60.51;101094.06;5070247;27;69476;-36
2023/01/27 02:20:40;;;;;;;;;;;;;;;29.47;60.54;101091.34;5084383;27;65605;-36
2023/01/27 02:23:20;;;;;;;;;;;;;;;29.47;59.95;101086.78;5089336;27;69201;-33
2023/01/27 02:25:55;;;;;;;;;;;;;;;29.50;60.49;101088.22;5077448;27;66087;-35
2023/01/27 02:28:27;;;;;;;;;;;;;;;29.51;60.31;101101.56;5064661;28;70312;-34
2023/01/27 02:30:58;;;;;;;;;;;;;;;29.53;59.96;101090.53;5086863;27;66438;-34
2023/01/27 02:33:29;;;;;;;;;;;;;;;29.55;60.43;101083.03;5081201;27;69920;-34
2023/01/27 02:36:00;;;;;;;;;;;;;;;29.57;60.19;101091.78;5066531;28;66017;-34
2023/01/27 02:38:34;;;;;;;;;;;;;;;29.57;60.42;101080.97;5045054;27;69176;-35
2023/01/27 02:41:13;;;;;;;;;;;;;;;29.59;59.88;101084.31;5091240;27;65941;-34
2023/01/27 02:43:49;;;;;;;;;;;;;;;29.60;60.16;101080.56;5077397;27;70400;-34
2023/01/27 02:46:20;;;;;;;;;;;;;;;29.63;60.01;101085.56;5082833;27;66197;-35
2023/01/27 02:48:51;;;;;;;;;;;;;;;29.65;60.01;101093.50;5089687;27;70266;-34
2023/01/27 02:51:22;;;;;;;;;;;;;;;29.65;60.24;101083.50;5080057;27;65799;-33
2023/01/27 02:53:52;;;;;;;;;;;;;;;29.67;60.05;101077.88;5057283;27;70024;-34
2023/01/27 02:56:23;;;;;;;;;;;;;;;29.67;60.17;101078.72;5078923;27;67373;-34
2023/01/27 02:58:56;;;;;;;;;;;;;;;29.69;59.90;101076.63;5089832;27;70287;-34
2023/01/27 03:01:35;;;;;;;;;;;;;;;29.71;60.42;101077.25;5072805;27;65913;-34
2023/01/27 03:04:08;;;;;;;;;;;;;;;29.72;60.02;101068.09;5058048;27;69705;-34
2023/01/27 03:06:39;;;;;;;;;;;;;;;29.74;60.27;101066.03;5075681;27;66065;-35
2023/01/27 03:09:10;;;;;;;;;;;;;;;29.77;60.28;101068.31;5090601;27;69978;-37
2023/01/27 03:20:07;;;;;;;;;;;;;;;29.83;59.99;101067.47;5072428;27;70638;-34
2023/01/27 03:22:37;;;;;;;;;;;;;;;29.86;59.64;101057.28;5067026;27;66354;-35
2023/01/27 03:25:12;;;;;;;;;;;;;;;29.88;59.68;101049.81;5069340;27;69691;-33
2023/01/27 03:27:43;;;;;;;;;;;;;;;29.88;60.13;101044.41;5049195;27;65891;-35
2023/01/27 03:30:27;;;;;;;;;;;;;;;29.91;60.00;101038.56;5081432;27;70077;-34
2023/01/27 03:33:12;;;;;;;;;;;;;;;29.94;59.56;101028.16;5062541;27;64960;-34
2023/01/27 03:47:18;;;;;;;;;;;;;;;30.04;60.05;101012.31;5083530;27;70597;-35
2023/01/27 03:49:49;;;;;;;;;;;;;;;30.06;59.92;101012.09;5050000;27;66629;-33
2023/01/27 03:52:19;;;;;;;;;;;;;;;30.09;59.38;101002.72;5079967;27;69664;-34
2023/01/27 03:54:50;;;;;;;;;;;;;;;30.12;59.78;101003.16;5083490;27;65941;-34
2023/01/27 03:57:20;;;;;;;;;;;;;;;30.14;59.29;101000.22;5061577;27;68969;-34
2023/01/27 03:59:51;;;;;;;;;;;;;;;30.16;59.53;100998.97;5082510;27;65137;-35
2023/01/27 04:07:58;;;;;;;;;;;;;;;30.24;58.98;100971.72;5077810;27;70097;-34
2023/01/27 04:10:29;;;;;;;;;;;;;;;30.27;58.94;100970.47;5074098;27;66780;-34
2023/01/27 04:13:00;;;;;;;;;;;;;;;30.28;59.40;100962.13;5077205;27;70483;-36
2023/01/27 04:15:30;;;;;;;;;;;;;;;30.31;59.14;100957.31;5079969;27;66577;-33
2023/01/27 04:18:01;;;;;;;;;;;;;;;30.33;59.25;100949.81;5084018;27;70500;-35
2023/01/27 04:20:31;;;;;;;;;;;;;;;30.36;59.12;100946.69;5086886;27;66236;-35
2023/01/27 04:23:02;;;;;;;;;;;;;;;30.37;58.66;100945.63;5070761;27;69025;-33
2023/01/27 04:25:32;;;;;;;;;;;;;;;30.39;58.59;100932.72;5087257;27;66689;-37
2023/01/27 04:28:03;;;;;;;;;;;;;;;30.42;58.74;100921.47;5085618;27;70516;-34
2023/01/27 04:30:33;;;;;;;;;;;;;;;30.46;58.90;100917.28;5053047;27;66387;-35
2023/01/27 04:33:05;;;;;;;;;;;;;;;30.48;58.63;100915.22;5083914;27;70836;-34
2023/01/27 04:35:35;;;;;;;;;;;;;;;30.50;59.24;100907.69;5086302;27;65439;-34
2023/01/27 04:38:07;;;;;;;;;;;;;;;30.53;58.75;100907.25;5088785;27;70047;-35
2023/01/27 04:40:37;;;;;;;;;;;;;;;30.55;59.08;100899.75;5086551;27;67116;-35
2023/01/27 04:43:08;;;;;;;;;;;;;;;30.57;58.62;100897.66;5085701;27;69378;-34
2023/01/27 04:45:38;;;;;;;;;;;;;;;30.60;58.51;100893.69;5063035;27;66830;-33
2023/01/27 04:48:10;;;;;;;;;;;;;;;30.61;58.70;100893.44;5084473;27;69743;-38
2023/01/27 04:50:40;;;;;;;;;;;;;;;30.63;58.34;100888.66;5085563;27;66321;-34
2023/01/27 04:53:11;;;;;;;;;;;;;;;30.65;58.80;100881.16;5081503;27;70034;-38
2023/01/27 04:55:45;;;;;;;;;;;;;;;30.67;58.64;100875.50;5086168;27;65852;-36
2023/01/27 04:58:19;;;;;;;;;;;;;;;30.69;58.38;100868.81;5081675;27;69363;-40
2023/01/27 05:00:49;;;;;;;;;;;;;;;30.70;58.77;100859.66;5086428;27;67005;-35
2023/01/27 05:03:20;;;;;;;;;;;;;;;30.72;58.41;100840.47;5087272;27;70198;-34
2023/01/27 05:05:51;;;;;;;;;;;;;;;30.73;58.71;100834.84;5084171;27;66442;-35
2023/01/27 05:08:22;;;;;;;;;;;;;;;30.76;58.71;100830.00;5086249;27;69467;-33
2023/01/27 05:10:52;;;;;;;;;;;;;;;30.78;58.64;100814.38;5079392;27;66649;-35
2023/01/27 05:13:23;;;;;;;;;;;;;;;30.79;58.39;100810.66;5079430;27;69511;-34
2023/01/27 05:16:04;;;;;;;;;;;;;;;30.82;58.17;100807.53;5076974;27;65812;-35
2023/01/27 05:18:35;;;;;;;;;;;;;;;30.83;58.08;100790.22;5086107;27;70191;-33
2023/01/27 05:21:07;;;;;;;;;;;;;;;30.85;58.40;100793.53;5083301;27;66578;-33
2023/01/27 05:23:37;;;;;;;;;;;;;;;30.87;58.16;100778.72;5082727;27;68667;-33
2023/01/27 05:26:09;;;;;;;;;;;;;;;30.90;58.38;100769.31;5081058;27;66008;-33
2023/01/27 05:28:44;;;;;;;;;;;;;;;30.93;58.66;100767.00;5079287;27;70402;-34
2023/01/27 05:31:19;;;;;;;;;;;;;;;30.96;58.06;100773.03;5080168;27;66231;-39
2023/01/27 05:33:51;;;;;;;;;;;;;;;30.98;57.67;100760.06;5080672;27;70514;-34
2023/01/27 05:36:23;;;;;;;;;;;;;;;31.00;57.88;100753.38;5077212;27;66645;-34
2023/01/27 05:38:54;;;;;;;;;;;;;;;31.00;57.54;100749.84;5079020;27;70785;-38
2023/01/27 05:41:25;;;;;;;;;;;;;;;31.02;57.64;100745.03;5078215;27;65688;-35
2023/01/27 05:43:55;;;;;;;;;;;;;;;31.02;57.87;100737.72;5079922;27;69733;-34
2023/01/27 05:46:28;;;;;;;;;;;;;;;31.03;57.77;100739.38;5082081;27;65932;-38
2023/01/27 05:49:00;;;;;;;;;;;;;;;31.04;57.57;100723.97;5079049;27;70029;-34
2023/01/27 05:51:32;;;;;;;;;;;;;;;31.06;57.81;100728.09;5083317;27;66320;-34
2023/01/27 05:54:03;;;;;;;;;;;;;;;31.08;57.49;100719.75;5048370;27;69962;-35
2023/01/27 05:56:33;;;;;;;;;;;;;;;31.08;57.53;100715.16;5064949;28;67072;-34
2023/01/27 05:59:04;;;;;;;;;;;;;;;31.09;57.37;100695.16;5085302;27;69985;-34
2023/01/27 06:01:36;;;;;;;;;;;;;;;31.11;57.65;100694.91;5064022;27;66426;-34
2023/01/27 06:04:06;;;;;;;;;;;;;;;31.13;57.71;100690.09;5087599;27;70556;-34
2023/01/27 06:06:37;;;;;;;;;;;;;;;30.63;57.82;100603.56;5072445;27;65774;-34
2023/01/27 06:09:09;;;;;;;;;;;;;;;31.15;57.81;100688.81;5087542;27;70818;-34
2023/01/27 06:11:39;;;;;;;;;;;;;;;31.18;57.70;100684.81;5087033;27;66463;-34
2023/01/27 06:14:10;;;;;;;;;;;;;;;31.20;57.39;100673.75;5086957;27;69868;-34
2023/01/27 06:16:42;;;;;;;;;;;;;;;31.21;57.50;100676.25;5083987;27;66622;-34
2023/01/27 06:19:13;;;;;;;;;;;;;;;31.24;57.15;100672.25;5080230;27;69709;-34
2023/01/27 06:21:43;;;;;;;;;;;;;;;31.25;57.33;100665.78;5079570;27;66496;-35
2023/01/27 06:24:14;;;;;;;;;;;;;;;31.28;56.99;100665.31;5083679;27;69927;-34
2023/01/27 06:26:45;;;;;;;;;;;;;;;31.29;57.40;100661.56;5081142;27;65895;-35
2023/01/27 06:29:15;;;;;;;;;;;;;;;31.30;57.26;100653.19;5077983;27;70471;-33
2023/01/27 06:31:46;;;;;;;;;;;;;;;31.32;57.09;100656.50;5085889;27;65329;-37
2023/01/27 06:34:16;;;;;;;;;;;;;;;31.33;56.96;100641.88;5084622;27;70074;-33
2023/01/27 06:36:47;;;;;;;;;;;;;;;31.35;57.36;100638.97;5074456;27;66402;-35
2023/01/27 06:39:17;;;;;;;;;;;;;;;31.37;56.93;100639.56;5090827;27;70321;-34
2023/01/27 06:41:49;;;;;;;;;;;;;;;31.38;56.68;100638.53;5083883;27;65548;-36
2023/01/27 06:44:19;;;;;;;;;;;;;;;31.41;56.77;100629.94;5063314;28;69675;-34
2023/01/27 06:46:52;;;;;;;;;;;;;;;31.39;56.79;100623.91;5085601;27;66248;-35
2023/01/27 06:49:22;;;;;;;;;;;;;;;31.42;56.59;100623.44;5072523;27;70591;-35
2023/01/27 06:51:53;;;;;;;;;;;;;;;31.45;56.85;100624.88;5068561;27;66537;-34
2023/01/27 06:54:24;;;;;;;;;;;;;;;31.46;56.84;100627.38;5082785;27;70034;-35
2023/01/27 06:56:55;;;;;;;;;;;;;;;31.49;56.68;100624.19;5080300;27;66216;-35
2023/01/27 06:59:25;;;;;;;;;;;;;;;31.51;56.93;100613.09;5079539;27;70539;-36
2023/01/27 07:01:56;;;;;;;;;;;;;;;31.51;56.89;100600.41;5083394;27;65278;-35
2023/01/27 07:04:26;;;;;;;;;;;;;;;31.54;56.76;100608.06;5077403;27;69479;-34
2023/01/27 07:06:58;;;;;;;;;;;;;;;31.55;56.42;100601.56;5069401;27;67032;-35
2023/01/27 07:09:28;;;;;;;;;;;;;;;31.57;56.62;100599.47;5064180;27;70266;-35
2023/01/27 07:12:10;;;;;;;;;;;;;;;31.59;56.42;100588.38;5078455;27;66185;-35
2023/01/27 07:14:41;;;;;;;;;;;;;;;31.60;56.53;100585.44;5052837;27;70237;-34
2023/01/27 07:17:11;;;;;;;;;;;;;;;31.62;56.43;100574.34;5082566;27;66446;-35
2023/01/27 07:19:42;;;;;;;;;;;;;;;31.64;56.45;100576.84;5083068;27;69837;-35
2023/01/27 07:22:12;;;;;;;;;;;;;;;31.67;56.46;100576.38;5081522;27;66777;-35
2023/01/27 07:24:43;;;;;;;;;;;;;;;31.68;56.22;100569.88;5082991;27;69323;-34
2023/01/27 07:27:14;;;;;;;;;;;;;;;31.69;56.17;100574.25;5084470;27;66788;-34
2023/01/27 07:29:44;;;;;;;;;;;;;;;31.70;56.32;100565.06;5080705;27;70243;-35
2023/01/27 07:32:15;;;;;;;;;;;;;;;31.71;56.11;100564.84;5083730;27;67443;-35
2023/01/27 07:34:46;;;;;;;;;;;;;;;31.72;55.93;100568.38;5055507;27;69793;-34
2023/01/27 07:37:17;;;;;;;;;;;;;;;31.73;56.16;100564.59;5085491;27;65998;-35
2023/01/27 07:39:54;;;;;;;;;;;;;;;31.75;55.96;100562.47;5052250;27;69562;-35
2023/01/27 07:42:24;;;;;;;;;;;;;;;31.76;55.82;100564.13;5080374;27;66135;-34
2023/01/27 07:44:55;;;;;;;;;;;;;;;31.77;55.68;100568.50;5084829;27;69766;-35
2023/01/27 07:47:26;;;;;;;;;;;;;;;31.75;55.98;100566.00;5080085;27;66891;-35
2023/01/27 07:49:56;;;;;;;;;;;;;;;31.77;55.86;100566.59;5083696;27;69053;-34
2023/01/27 07:52:27;;;;;;;;;;;;;;;31.79;55.88;100566.38;5084756;27;66282;-34
2023/01/27 07:54:57;;;;;;;;;;;;;;;31.79;56.28;100560.97;5080619;27;69251;-35
2023/01/27 07:57:28;;;;;;;;;;;;;;;31.79;56.04;100563.66;5086193;27;65440;-38
2023/01/27 07:59:59;;;;;;;;;;;;;;;31.80;56.14;100559.88;5083200;27;70223;-34
2023/01/27 08:02:39;;;;;;;;;;;;;;;31.81;55.95;100553.41;5083333;27;66395;-36
2023/01/27 08:05:09;;;;;;;;;;;;;;;31.82;56.07;100552.34;5083965;27;69890;-38
2023/01/27 08:07:40;;;;;;;;;;;;;;;31.82;55.67;100546.94;5083247;27;66015;-34
2023/01/27 08:10:11;;;;;;;;;;;;;;;31.81;56.23;100551.50;5080416;27;70137;-34
2023/01/27 08:12:43;;;;;;;;;;;;;;;31.84;56.13;100555.63;5078377;27;65572;-37
2023/01/27 08:15:14;;;;;;;;;;;;;;;31.83;55.83;100554.00;5083782;27;69699;-35
2023/01/27 08:17:54;;;;;;;;;;;;;;;31.77;53.46;100547.63;5083518;27;66562;-34
2023/01/27 08:20:25;;;;;;;;;;;;;;;31.77;52.63;100550.34;5092977;27;70323;-34
2023/01/27 08:22:56;;;;;;;;;;;;;;;31.82;53.63;100552.34;5086542;27;65755;-36
2023/01/27 08:25:26;;;;;;;;;;;;;;;31.87;54.07;100554.34;5076159;27;69831;-36
2023/01/27 08:27:57;;;;;;;;;;;;;;;31.86;54.47;100553.53;5067322;27;66538;-36
2023/01/27 08:30:27;;;;;;;;;;;;;;;31.86;55.11;100548.09;5070059;28;69752;-34
2023/01/27 08:32:58;;;;;;;;;;;;;;;31.87;54.70;100554.34;5083423;27;66137;-34
2023/01/27 08:35:28;;;;;;;;;;;;;;;31.86;54.94;100553.53;5079230;27;69774;-35
2023/01/27 08:37:59;;;;;;;;;;;;;;;31.86;55.04;100552.69;5081532;27;66349;-34
2023/01/27 08:40:29;;;;;;;;;;;;;;;31.85;55.28;100546.47;5086863;27;69343;-35
2023/01/27 08:43:00;;;;;;;;;;;;;;;31.84;55.23;100550.22;5089625;27;67066;-35
2023/01/27 08:45:33;;;;;;;;;;;;;;;31.82;55.24;100557.78;5083110;27;70298;-34
2023/01/27 08:48:07;;;;;;;;;;;;;;;31.84;55.25;100555.63;5085079;27;66185;-34
2023/01/27 08:50:40;;;;;;;;;;;;;;;31.82;55.11;100555.88;5082621;27;70210;-35
2023/01/27 08:53:14;;;;;;;;;;;;;;;31.82;55.46;100552.34;5080278;27;59929;-35
2023/01/27 08:55:45;;;;;;;;;;;;;;;31.81;55.35;100550.69;5068044;27;69534;-34
2023/01/27 08:58:15;;;;;;;;;;;;;;;31.81;55.51;100545.25;5081676;27;66043;-35
2023/01/27 09:00:46;;;;;;;;;;;;;;;31.81;55.42;100556.09;5087589;27;70698;-35
2023/01/27 09:03:17;;;;;;;;;;;;;;;31.81;55.54;100553.41;5080467;27;66360;-33
2023/01/27 09:05:48;;;;;;;;;;;;;;;31.78;55.41;100551.16;5080712;27;70041;-34
2023/01/27 09:08:18;;;;;;;;;;;;;;;31.80;55.44;100554.47;5054339;28;65056;-36
2023/01/27 09:10:49;;;;;;;;;;;;;;;31.80;55.24;100568.03;5086373;27;70483;-35
2023/01/27 09:13:21;;;;;;;;;;;;;;;31.80;55.34;100566.13;5084722;27;66076;-34
2023/01/27 09:15:52;;;;;;;;;;;;;;;31.78;55.78;100573.66;5088824;27;69332;-34
2023/01/27 09:18:22;;;;;;;;;;;;;;;31.79;55.80;100579.94;5084120;27;66225;-34
2023/01/27 09:20:53;;;;;;;;;;;;;;;31.79;55.79;100593.50;5085750;27;69360;-35
2023/01/27 09:23:23;;;;;;;;;;;;;;;31.78;56.26;100599.97;5046455;27;66359;-35
2023/01/27 09:25:54;;;;;;;;;;;;;;;31.78;56.17;100599.97;5068579;27;69945;-34
2023/01/27 09:28:24;;;;;;;;;;;;;;;31.76;56.45;100596.66;5086406;27;66818;-35
2023/01/27 09:30:58;;;;;;;;;;;;;;;31.77;56.33;100609.19;5081500;27;70329;-38
2023/01/27 09:33:29;;;;;;;;;;;;;;;31.76;56.57;100621.91;5085528;27;65369;-34
2023/01/27 09:36:09;;;;;;;;;;;;;;;31.76;56.28;100629.19;5094018;27;69716;-37
2023/01/27 09:38:44;;;;;;;;;;;;;;;31.76;56.58;100645.47;5100804;27;65786;-35
2023/01/27 09:41:42;;;;;;;;;;;;;;;31.76;56.86;100656.31;5087414;27;70394;-38
2023/01/27 09:44:31;;;;;;;;;;;;;;;31.75;56.88;100676.38;5087778;27;66203;-34
2023/01/27 09:47:11;;;;;;;;;;;;;;;31.75;57.36;100687.22;5089175;27;70067;-34
2023/01/27 09:49:51;;;;;;;;;;;;;;;31.75;57.31;100695.34;5053781;28;66009;-33
2023/01/27 09:52:37;;;;;;;;;;;;;;;31.74;57.46;100693.72;5063677;27;70036;-35
2023/01/27 09:55:41;;;;;;;;;;;;;;;31.73;57.51;100690.19;5080558;27;66017;-35
2023/01/27 09:58:24;;;;;;;;;;;;;;;31.72;57.87;100684.97;5093339;27;69965;-36
2023/01/27 10:00:54;;;;;;;;;;;;;;;31.72;57.56;100684.97;5089386;27;66416;-34
2023/01/27 10:03:48;;;;;;;;;;;;;;;31.70;58.01;100684.38;5086925;27;71054;-34
2023/01/27 10:06:30;;;;;;;;;;;;;;;31.69;58.66;100693.56;5076257;27;66063;-34
2023/01/27 10:09:06;;;;;;;;;;;;;;;31.69;59.21;100693.56;5070834;27;68876;-34
2023/01/27 10:11:56;;;;;;;;;;;;;;;31.67;59.60;100691.06;5088295;27;66562;-35
2023/01/27 10:14:41;;;;;;;;;;;;;;;31.66;59.91;100694.03;5087832;27;70033;-36
2023/01/27 10:17:17;;;;;;;;;;;;;;;31.66;60.50;100702.16;5069548;27;65761;-35
2023/01/27 10:20:03;;;;;;;;;;;;;;;31.65;60.87;100708.63;5057840;27;70011;-35
2023/01/27 10:22:35;;;;;;;;;;;;;;;31.63;61.37;100716.19;5084367;27;67106;-38
2023/01/27 10:25:27;;;;;;;;;;;;;;;31.59;61.82;100719.38;5066887;27;70653;-39
2023/01/27 10:27:59;;;;;;;;;;;;;;;31.51;63.86;100730.53;5084341;27;65965;-37
2023/01/27 10:30:30;;;;;;;;;;;;;;;31.28;65.86;100724.94;5081898;27;69797;-33
2023/01/27 10:33:20;;;;;;;;;;;;;;;31.25;66.87;100725.38;5086996;27;66866;-34
2023/01/27 10:35:52;;;;;;;;;;;;;;;31.27;66.48;100744.97;5086862;27;70927;-35
2023/01/27 10:38:28;;;;;;;;;;;;;;;31.22;67.09;100739.38;5084839;27;66577;-35
2023/01/27 10:41:17;;;;;;;;;;;;;;;31.26;65.74;100744.13;5087152;27;70064;-36
2023/01/27 10:44:10;;;;;;;;;;;;;;;31.27;66.07;100750.38;5068154;27;65796;-36
2023/01/27 10:46:46;;;;;;;;;;;;;;;31.22;66.20;100739.38;5087055;27;68968;-36
2023/01/27 10:49:28;;;;;;;;;;;;;;;31.20;66.48;100736.91;5087864;27;66744;-37
2023/01/27 10:52:10;;;;;;;;;;;;;;;31.21;66.75;100735.84;5085409;27;70127;-34
2023/01/27 10:54:48;;;;;;;;;;;;;;;31.20;66.57;100750.44;5085458;27;66352;-34
2023/01/27 10:57:27;;;;;;;;;;;;;;;31.21;66.35;100762.13;5083566;27;71233;-35
2023/01/27 11:00:16;;;;;;;;;;;;;;;31.19;66.72;100759.63;5085043;27;66258;-34
2023/01/27 11:03:12;;;;;;;;;;;;;;;31.19;66.44;100766.94;5083051;27;67673;-34
2023/01/27 11:05:46;;;;;;;;;;;;;;;31.16;66.75;100763.63;5084123;27;66371;-34
2023/01/27 11:08:18;;;;;;;;;;;;;;;31.16;66.56;100771.75;5078209;27;70052;-36
2023/01/27 11:13:41;;;;;;;;;;;;;;;31.16;66.58;100776.34;5085580;27;70891;-35
2023/01/27 11:16:16;;;;;;;;;;;;;;;31.18;66.81;100774.25;5076218;27;66565;-38
2023/01/27 11:18:53;;;;;;;;;;;;;;;31.14;67.22;100779.25;5056881;27;70123;-32
2023/01/27 11:21:29;;;;;;;;;;;;;;;31.11;67.02;100782.44;5085694;27;67062;-35
2023/01/27 11:24:11;;;;;;;;;;;;;;;31.12;66.86;100775.97;5091315;27;70339;-34
2023/01/27 11:26:43;;;;;;;;;;;;;;;31.15;67.17;100775.53;5085537;27;66002;-35
2023/01/27 11:29:32;;;;;;;;;;;;;;;31.12;66.97;100780.53;5085255;27;69944;-37
2023/01/27 11:32:05;;;;;;;;;;;;;;;31.14;66.87;100773.84;5085295;27;67304;-37
2023/01/27 11:35:00;;;;;;;;;;;;;;;31.16;66.53;100779.06;5090147;27;69382;-36
2023/01/27 11:37:30;;;;;;;;;;;;;;;31.14;66.33;100778.44;5081450;27;65709;-39
2023/01/27 11:40:02;;;;;;;;;;;;;;;31.12;66.63;100781.41;5081007;27;70254;-36
2023/01/27 11:42:36;;;;;;;;;;;;;;;31.13;66.21;100783.03;5087924;27;66331;-33
2023/01/27 11:45:12;;;;;;;;;;;;;;;31.12;66.17;100784.09;5083885;27;70581;-35
2023/01/27 11:47:44;;;;;;;;;;;;;;;31.11;66.25;100778.91;5086638;27;65633;-34
2023/01/27 11:50:16;;;;;;;;;;;;;;;31.11;66.01;100781.59;5079305;27;70497;-35
2023/01/27 11:53:09;;;;;;;;;;;;;;;31.09;66.29;100784.56;5083791;27;66876;-33
2023/01/27 11:55:42;;;;;;;;;;;;;;;31.08;66.11;100791.00;5075731;27;70359;-35
2023/01/27 11:58:19;;;;;;;;;;;;;;;31.07;66.06;100792.06;5084733;27;65938;-34
2023/01/27 12:01:02;;;;;;;;;;;;;;;31.09;65.66;100803.53;5081827;27;69865;-36
2023/01/27 12:03:41;;;;;;;;;;;;;;;31.13;65.38;100804.72;5082332;27;66706;-34
2023/01/27 12:06:15;;;;;;;;;;;;;;;31.16;64.77;100812.41;5066890;27;69795;-34
2023/01/27 12:08:48;;;;;;;;;;;;;;;31.19;64.82;100813.84;5085517;27;65413;-34
2023/01/27 12:11:26;;;;;;;;;;;;;;;31.19;64.25;100807.59;5083039;27;69744;-33
2023/01/27 12:13:58;;;;;;;;;;;;;;;31.19;64.58;100815.72;5087862;27;65485;-33
2023/01/27 12:16:42;;;;;;;;;;;;;;;31.16;64.12;100812.41;5063802;27;68565;-33
2023/01/27 12:19:24;;;;;;;;;;;;;;;31.16;63.99;100823.22;5084367;27;66011;-34
2023/01/27 12:21:56;;;;;;;;;;;;;;;31.16;64.08;100819.69;5088265;27;69777;-38
2023/01/27 12:24:32;;;;;;;;;;;;;;;31.15;64.00;100815.34;5085371;27;65391;-36
2023/01/27 12:27:04;;;;;;;;;;;;;;;31.13;63.99;100826.38;5065810;27;70643;-36
2023/01/27 12:29:40;;;;;;;;;;;;;;;31.12;64.20;100840.16;5082047;27;66226;-34
2023/01/27 12:32:20;;;;;;;;;;;;;;;31.11;63.65;100833.91;5080752;27;69629;-34
2023/01/27 12:34:55;;;;;;;;;;;;;;;31.10;63.67;100848.50;5077586;27;66911;-36
2023/01/27 12:37:35;;;;;;;;;;;;;;;31.08;63.62;100850.59;5076325;27;70522;-34
2023/01/27 12:40:07;;;;;;;;;;;;;;;31.08;64.12;100839.78;5077830;27;66905;-37
2023/01/27 12:42:40;;;;;;;;;;;;;;;31.06;64.15;100836.44;5075272;27;69873;-35
2023/01/27 12:45:22;;;;;;;;;;;;;;;31.04;63.54;100833.16;5060407;27;65830;-35
2023/01/27 12:48:12;;;;;;;;;;;;;;;31.03;63.64;100839.59;5052969;28;70502;-34
2023/01/27 12:51:03;;;;;;;;;;;;;;;31.03;63.70;100847.72;5078923;27;65949;-35
2023/01/27 12:53:34;;;;;;;;;;;;;;;31.02;63.80;100840.66;5077389;27;69623;-39
2023/01/27 12:56:09;;;;;;;;;;;;;;;30.99;63.46;100849.25;5055845;28;66304;-34
2023/01/27 12:58:42;;;;;;;;;;;;;;;30.99;63.63;100849.25;5076596;27;69136;-34
2023/01/27 13:01:27;;;;;;;;;;;;;;;30.98;63.49;100853.00;5079809;27;65628;-34
2023/01/27 13:04:02;;;;;;;;;;;;;;;30.97;63.84;100850.50;5081360;27;69269;-37
2023/01/27 13:06:33;;;;;;;;;;;;;;;30.96;63.53;100857.81;5083845;27;66976;-34
2023/01/27 13:09:04;;;;;;;;;;;;;;;30.95;63.86;100850.72;5082893;27;69872;-34
2023/01/27 13:11:36;;;;;;;;;;;;;;;30.95;63.80;100853.44;5083169;27;67040;-35
2023/01/27 13:14:08;;;;;;;;;;;;;;;30.94;63.86;100862.63;5075343;27;69219;-34
2023/01/27 13:16:39;;;;;;;;;;;;;;;30.93;63.73;100866.38;5075768;27;66642;-34
2023/01/27 13:19:15;;;;;;;;;;;;;;;30.91;63.44;100866.59;5034938;28;70135;-34
2023/01/27 13:21:49;;;;;;;;;;;;;;;30.92;63.45;100867.41;5076737;27;66032;-33
2023/01/27 13:24:24;;;;;;;;;;;;;;;30.90;63.31;100869.53;5082311;27;67606;-34
2023/01/27 13:26:55;;;;;;;;;;;;;;;30.90;63.13;100877.66;5066990;27;66275;-37
2023/01/27 13:29:28;;;;;;;;;;;;;;;30.89;63.64;100878.69;5079058;27;69652;-36
2023/01/27 13:31:59;;;;;;;;;;;;;;;30.89;63.13;100878.69;5074901;27;65641;-35
2023/01/27 13:34:32;;;;;;;;;;;;;;;30.89;63.33;100876.00;5077664;27;69888;-33
2023/01/27 13:37:07;;;;;;;;;;;;;;;30.86;63.34;100873.72;5078075;27;67169;-34
2023/01/27 13:39:47;;;;;;;;;;;;;;;30.86;63.13;100876.44;5086655;27;68366;-34
2023/01/27 13:42:18;;;;;;;;;;;;;;;30.85;63.34;100882.91;5084828;27;65979;-35
2023/01/27 13:45:00;;;;;;;;;;;;;;;30.84;63.10;100881.22;5085326;27;70037;-34